Airfield :







YOU CAN JOIN US ON...

 
LOGIN :

Register | Disclaimer

   EN    FR    IT 

 









Legend :    VFR   Marginal VFR   IFR   Intensive IFR   Very Intensive IFR
Visi :
Ceiling :
>= 8 km
>= 3000ft
5 to 8 km
1000 to 3000 ft
1500m to 5 km
500 to 1000 ft
800 to 1500m
200 to 500 ft
< 800m
< 200 ft
Symbols :   Thunderstorms  Fog  Heavy snow  Heavy precipitations  Wind > 20 kt







- Airport Elevation : 180 ft
- IATA code : YZV


CYZV - Sept-Iles

CURRENT METAR :
  • 160100Z 29005KT 15SM SCT065 BKN160 11/10 A2979 RMK SC3AC3 SLP090

EXPIRED METARs :
  • 160000Z 35005KT 15SM SCT050 SCT080 BKN160 13/10 A2979 RMK SC3AC1AC2 SLP091 DENSITY ALT 200FT
  • 152300Z 33004KT 15SM SCT055 BKN100 14/11 A2979 RMK SC4AC3 SLP090 DENSITY ALT 400FT

TAF TAF CYZV
Valid from the 16 at 00:00 until the 17 at 00:00 UTC


152341Z 1600/1624 VRB03KT P6SM SCT050 BKN100
TEMPO 1600/1616 P6SM -SHRA
FM161600 02010KT P6SM BKN050 RMK NXT FCST BY 160600Z
No reported NOTAMs for that airfield.



MET'MAP, your aeronautical weather chart ! - Copyright ORBIFLY December 2007 - Disclaimer

ORBIFLY MET'MAP TEAM :

Programming & Development : Alexandra Zaïnal
Concept & Development : Baudouin d'Aumeries
Co-Development & Prog : Marc-Olivier Méhu
Technical & hardware support : Manuel Goepfert

Contact : metmap@orbifly.com




SOURCES & CREDITS :

   NOAA